Middleton Island, Alaska
Current Conditions -  °F | °C
As of 7:56 PM on Saturday 25 Oct 2014 (Local Time) from PAMD Reporting Station
Few Clouds Few Clouds  
Wind Chill: 36°   Ceiling: Unl
Heat Index: 43°   Visibility: 10mi
Dew Point: 37°   Wind: 13mph
Humidity: 81%   Direction: 340°NNW
Pressure: 29.73"   Gusts: 17mph
Location:  59.43°N, 146.33°W
Report Text: PAMD 260356Z 34011G15KT 10SM FEW013 FEW027 06/03 A2973 RMK AO1
Loading
Personal Weather Stations






























Interactive Weather Map
Tropical Storm Tracking
New forecast layout! Learn more

10-Day Weather Forecast

Advertisements
Track Severe Weather on mobile